createdAt,value
2022-09-12T00:04:10.011Z,7.6
2022-09-12T00:10:26.096Z,9.3
2022-09-12T00:14:24.369Z,9.5
2022-09-12T00:19:16.705Z,9.0
2022-09-12T00:24:32.215Z,7.8
2022-09-12T00:36:18.555Z,10.0
2022-09-12T00:41:25.932Z,8.1
2022-09-12T00:46:32.546Z,7.6
2022-09-12T00:51:29.045Z,8.5
2022-09-12T01:01:51.245Z,7.3
2022-09-12T01:06:58.424Z,9.1
2022-09-12T01:11:54.753Z,7.7
2022-09-12T01:17:39.209Z,7.9
2022-09-12T01:22:07.527Z,7.5
2022-09-12T01:27:13.871Z,7.5
2022-09-12T01:32:20.304Z,8.1
2022-09-12T01:37:56.801Z,10.3
2022-09-12T01:42:43.130Z,8.8
2022-09-12T01:47:49.571Z,9.7
2022-09-12T01:52:45.933Z,9.3
2022-09-12T01:58:06.346Z,8.4
2022-09-12T02:03:08.687Z,8.0
2022-09-12T02:08:05.057Z,7.8
2022-09-12T02:13:21.495Z,10.5
2022-09-12T02:18:27.862Z,7.2
2022-09-12T02:23:34.312Z,6.6
2022-09-12T02:29:04.767Z,6.8
2022-09-12T02:33:47.087Z,7.7
2022-09-12T02:38:53.475Z,9.3
2022-09-12T02:43:59.857Z,6.8
2022-09-12T02:49:08.817Z,8.9
2022-09-12T02:54:12.620Z,6.1
2022-09-12T02:59:23.008Z,8.0
2022-09-12T03:04:25.428Z,7.3
2022-09-12T03:09:31.947Z,7.0
2022-09-12T03:14:38.423Z,8.0
2022-09-12T03:19:44.862Z,9.3
2022-09-12T03:25:19.274Z,8.0
2022-09-12T03:29:57.679Z,9.8
2022-09-12T03:35:03.002Z,9.4
2022-09-12T03:40:10.423Z,9.4
2022-09-12T03:45:16.841Z,9.3
2022-09-12T03:50:23.303Z,9.3
2022-09-12T03:55:19.688Z,10.3
2022-09-12T04:00:26.081Z,9.4
2022-09-12T04:05:32.481Z,8.9
2022-09-12T04:11:32.951Z,11.3
2022-09-12T04:16:19.430Z,9.2
2022-09-12T04:21:01.781Z,9.6
2022-09-12T04:26:08.131Z,9.2
2022-09-12T04:31:28.553Z,10.0
2022-09-12T04:36:40.069Z,9.7
2022-09-12T04:41:27.382Z,8.9
2022-09-12T04:46:33.774Z,10.0
2022-09-12T04:51:40.157Z,9.2
2022-09-12T04:56:46.576Z,9.7
2022-09-12T05:01:43.018Z,9.0
2022-09-12T05:06:49.416Z,9.4
2022-09-12T05:12:06.061Z,10.4
2022-09-12T05:17:12.184Z,8.2
2022-09-12T05:22:18.675Z,8.0
2022-09-12T05:27:29.083Z,8.5
2022-09-12T05:32:31.497Z,10.2
2022-09-12T05:37:37.897Z,11.3
2022-09-12T05:42:34.436Z,9.3
2022-09-12T05:47:54.835Z,8.4
2022-09-12T05:52:57.185Z,10.3
2022-09-12T05:57:53.705Z,13.7
2022-09-12T06:03:14.807Z,10.5
2022-09-12T06:08:17.269Z,10.7
2022-09-12T06:13:23.663Z,13.2
2022-09-12T06:18:30.029Z,11.9
2022-09-12T06:23:36.425Z,13.1
2022-09-12T06:28:32.810Z,14.1
2022-09-12T06:33:49.199Z,13.0
2022-09-12T06:38:55.578Z,13.9
2022-09-12T06:44:01.992Z,12.5
2022-09-12T06:48:58.449Z,13.5
2022-09-12T06:54:14.951Z,13.1
2022-09-12T06:59:11.432Z,13.0
2022-09-12T07:04:17.803Z,12.0
2022-09-12T07:09:34.196Z,12.4
2022-09-12T07:14:30.634Z,11.6
2022-09-12T07:19:47.015Z,11.6
2022-09-12T07:24:53.401Z,12.3
2022-09-12T07:29:59.957Z,12.5
2022-09-12T07:35:10.252Z,13.6
2022-09-12T07:40:12.718Z,14.0
2022-09-12T07:52:06.574Z,18.0
2022-09-12T07:56:54.109Z,11.7
2022-09-12T08:02:00.495Z,10.6
2022-09-12T08:07:06.868Z,12.4
2022-09-12T08:12:13.313Z,15.1
2022-09-12T08:17:19.697Z,14.0
2022-09-12T08:22:26.214Z,11.5
2022-09-12T08:27:32.723Z,11.0
2022-09-12T08:32:59.227Z,13.3
2022-09-12T08:37:45.554Z,12.4
2022-09-12T08:42:51.974Z,8.2
2022-09-12T08:48:22.375Z,9.6
2022-09-12T08:52:54.688Z,11.8
2022-09-12T08:58:14.820Z,10.8
2022-09-12T09:03:21.154Z,8.9
2022-09-12T09:08:27.569Z,9.9
2022-09-12T09:13:33.998Z,7.3
2022-09-12T09:18:41.442Z,9.1
2022-09-12T09:24:09.128Z,10.7
2022-09-12T09:28:55.544Z,9.4
2022-09-12T09:34:56.481Z,11.1
2022-09-12T09:40:05.264Z,8.4
2022-09-12T09:45:11.586Z,9.2
2022-09-12T09:50:18.026Z,8.4
2022-09-12T09:55:45.764Z,9.4
2022-09-12T10:00:56.530Z,8.9
2022-09-12T10:05:38.195Z,7.2
2022-09-12T10:11:05.748Z,7.6
2022-09-12T10:16:11.184Z,7.8
2022-09-12T10:21:58.620Z,8.2
2022-09-12T10:26:04.979Z,8.6
2022-09-12T10:35:43.530Z,9.8
2022-09-12T10:37:51.774Z,7.3
2022-09-12T10:42:32.280Z,8.0
2022-09-12T10:47:40.873Z,6.8
2022-09-12T10:53:38.331Z,5.7
2022-09-12T10:57:32.545Z,6.0
2022-09-12T11:02:39.018Z,8.4
2022-09-12T11:08:57.687Z,9.0
2022-09-12T11:17:57.845Z,3.9
2022-09-12T11:19:10.039Z,5.2
2022-09-12T11:23:05.233Z,5.4
2022-09-12T11:28:11.654Z,5.1
2022-09-12T11:33:18.586Z,4.5
2022-09-12T11:38:24.969Z,4.4
2022-09-12T11:43:21.354Z,4.9
2022-09-12T11:48:27.698Z,3.3
2022-09-12T11:53:44.096Z,2.7
2022-09-12T11:58:40.485Z,3.1
2022-09-12T12:03:56.861Z,3.4
2022-09-12T12:09:03.256Z,3.2
2022-09-12T12:13:59.677Z,1.9
2022-09-12T12:19:16.064Z,3.4
2022-09-12T12:24:22.446Z,2.8
2022-09-12T12:29:28.894Z,3.1
2022-09-12T12:34:35.229Z,3.3
2022-09-12T12:39:42.276Z,3.2
2022-09-12T12:44:38.775Z,3.0
2022-09-12T12:49:57.062Z,3.1
2022-09-12T12:55:03.453Z,3.3
2022-09-12T13:00:09.868Z,3.0
2022-09-12T13:05:16.231Z,2.4
2022-09-12T13:10:22.667Z,2.6
2022-09-12T13:15:29.154Z,1.8
2022-09-12T13:20:35.444Z,3.0
2022-09-12T13:25:41.823Z,2.2
2022-09-12T13:30:52.290Z,2.2
2022-09-12T13:35:54.591Z,2.7
2022-09-12T13:41:01.097Z,2.8
2022-09-12T13:46:11.584Z,2.1
2022-09-12T13:51:14.410Z,3.2
2022-09-12T13:56:20.790Z,4.5
2022-09-12T14:01:17.251Z,4.8
2022-09-12T14:06:32.587Z,2.8
2022-09-12T14:12:04.092Z,2.4
2022-09-12T14:16:36.431Z,3.2
2022-09-12T14:22:27.919Z,2.9
2022-09-12T14:27:36.858Z,3.8
2022-09-12T14:32:43.292Z,3.0
2022-09-12T14:37:48.654Z,2.8
2022-09-12T14:45:08.327Z,2.8
2022-09-12T14:50:15.361Z,3.2
2022-09-12T15:08:28.912Z,2.7
2022-09-12T15:17:42.887Z,2.8
2022-09-12T15:41:53.931Z,2.6
2022-09-12T15:46:37.208Z,1.8
2022-09-12T16:20:36.901Z,1.3
2022-09-12T16:25:24.238Z,2.5
2022-09-12T16:31:04.856Z,2.2
2022-09-12T16:36:36.243Z,2.6
2022-09-12T16:41:18.557Z,2.6
2022-09-12T16:47:37.065Z,1.9
2022-09-12T16:51:31.378Z,1.4
2022-09-12T16:56:37.793Z,1.9
2022-09-12T17:01:44.214Z,1.5
2022-09-12T17:06:40.507Z,3.1
2022-09-12T17:11:55.928Z,2.2
2022-09-12T17:22:11.240Z,2.2
2022-09-12T17:27:17.734Z,1.5
2022-09-12T17:32:24.009Z,2.3
2022-09-12T17:37:30.378Z,2.2
2022-09-12T17:42:36.963Z,1.5
2022-09-12T17:48:11.297Z,2.2
2022-09-12T17:52:49.606Z,2.5
2022-09-12T17:57:56.003Z,1.8
2022-09-12T18:03:02.468Z,2.6
2022-09-12T18:08:12.370Z,2.4
2022-09-12T18:13:18.767Z,2.7
2022-09-12T18:18:49.262Z,1.9
2022-09-12T18:23:31.529Z,2.2
2022-09-12T18:29:02.628Z,2.3
2022-09-12T18:33:44.942Z,2.8
2022-09-12T18:38:55.249Z,2.7
2022-09-12T18:43:47.799Z,3.0
2022-09-12T18:49:04.145Z,3.5
2022-09-12T18:54:10.546Z,2.7
2022-09-12T18:59:17.065Z,2.4
2022-09-12T19:04:13.577Z,2.6
2022-09-12T19:09:28.835Z,3.5
2022-09-12T19:14:40.218Z,2.3
2022-09-12T19:20:02.718Z,2.8
2022-09-12T19:24:48.006Z,3.1
2022-09-12T19:29:59.397Z,3.3
2022-09-12T19:34:51.761Z,3.2
2022-09-12T19:40:32.373Z,3.6
2022-09-12T19:45:14.695Z,3.7
2022-09-12T19:50:21.096Z,3.0
2022-09-12T19:55:27.608Z,3.9
2022-09-12T20:00:34.017Z,3.9
2022-09-12T20:05:30.435Z,4.0
2022-09-12T20:10:46.839Z,3.8
2022-09-12T20:15:43.269Z,4.5
2022-09-12T20:21:27.232Z,3.3
2022-09-12T20:26:09.561Z,3.7
2022-09-12T20:31:59.068Z,4.3
2022-09-12T20:42:36.893Z,2.6
2022-09-12T20:47:19.361Z,3.0
2022-09-12T20:52:24.678Z,2.6
2022-09-12T20:57:32.012Z,2.5
2022-09-12T21:02:28.551Z,3.7
2022-09-12T21:07:44.781Z,3.2
2022-09-12T21:12:51.263Z,3.3
2022-09-12T21:17:57.676Z,4.7
2022-09-12T21:23:04.022Z,2.3
2022-09-12T21:28:09.407Z,3.8
2022-09-12T21:33:06.889Z,6.3
2022-09-12T21:38:23.172Z,4.2
2022-09-12T21:43:49.692Z,4.3
2022-09-12T21:48:36.083Z,3.8
2022-09-12T21:53:42.616Z,3.9
2022-09-12T21:58:38.922Z,4.7
2022-09-12T22:03:55.384Z,2.4
2022-09-12T22:08:51.673Z,5.9
2022-09-12T22:13:58.037Z,3.7
2022-09-12T22:19:04.459Z,3.0
2022-09-12T22:24:45.107Z,5.4
2022-09-12T22:29:27.641Z,4.4
2022-09-12T22:34:34.053Z,4.7
2022-09-12T22:39:40.479Z,5.5
2022-09-12T22:44:46.815Z,4.3
2022-09-12T22:49:53.218Z,4.5
2022-09-12T22:54:59.786Z,4.9
2022-09-12T23:00:06.552Z,5.9
2022-09-12T23:05:13.157Z,5.8
2022-09-12T23:10:19.879Z,6.0
2022-09-12T23:15:26.815Z,4.7
2022-09-12T23:20:33.375Z,4.9
2022-09-12T23:25:39.842Z,6.2
2022-09-12T23:30:46.307Z,4.6
2022-09-12T23:35:52.717Z,4.7
2022-09-12T23:40:59.105Z,4.7
2022-09-12T23:46:05.524Z,6.2
2022-09-12T23:51:12.046Z,6.3
2022-09-12T23:56:18.369Z,5.6
